This is the latest recevied weather packets stored in our database for station/object KK7RJD. If no packets are shown the sender has not sent any weather packets the latest 10 day(s).
| Time | Temp. | Humidity | Pressure | Rain* | Wind** | Luminosity | Snow |
|---|---|---|---|---|---|---|---|
| 1777194332 | -1.11° C | 71% | 1008.4 hPa | 0 mm | - | 0 W/m² | - |
| 1777194029 | -1.11° C | 72% | 1008.4 hPa | 0 mm | - | 0 W/m² | - |
| 1777193728 | -1.67° C | 74% | 1008.7 hPa | 0 mm | - | 0 W/m² | - |
| 1777193428 | -1.67° C | 75% | 1008.6 hPa | 0 mm | - | 0 W/m² | - |
| 1777193123 | -1.67° C | 75% | 1008.6 hPa | 0 mm | - | 0 W/m² | - |
| 1777192824 | -1.11° C | 74% | 1008.7 hPa | 0 mm | - | 0 W/m² | - |
| 1777192520 | -1.11° C | 72% | 1008.8 hPa | 0 mm | - | 0 W/m² | - |
| 1777192216 | -1.11° C | 73% | 1008.9 hPa | 0 mm | - | 0 W/m² | - |
| 1777191914 | -2.22° C | 75% | 1008.9 hPa | 0 mm | - | 0 W/m² | - |
| 1777191610 | -1.67° C | 72% | 1008.9 hPa | 0 mm | - | 0 W/m² | - |
| 1777191306 | -1.11° C | 71% | 1009.2 hPa | 0 mm | - | 0 W/m² | - |
| 1777191003 | -1.11° C | 71% | 1009.2 hPa | 0 mm | - | 0 W/m² | - |
| 1777190701 | -1.11° C | 71% | 1009.2 hPa | 0 mm | - | 0 W/m² | - |
| 1777190397 | -1.11° C | 72% | 1009.2 hPa | 0 mm | - | 0 W/m² | - |
| 1777190091 | -1.11° C | 71% | 1009.3 hPa | 0 mm | - | 0 W/m² | - |
| 1777189789 | -0.56° C | 69% | 1009.4 hPa | 0 mm | - | 0 W/m² | - |
| 1777189483 | -0.56° C | 69% | 1009.6 hPa | 0 mm | - | 0 W/m² | - |
| 1777189179 | -0.56° C | 70% | 1009.6 hPa | 0 mm | - | 0 W/m² | - |
| 1777188875 | -0.56° C | 70% | 1009.7 hPa | 0 mm | - | 0 W/m² | - |
| 1777188572 | -0.56° C | 71% | 1009.6 hPa | 0 mm | - | 0 W/m² | - |
| 1777188267 | -0.56° C | 71% | 1010 hPa | 0 mm | - | 0 W/m² | - |
| 1777187962 | -0.56° C | 69% | 1010 hPa | 0 mm | - | 0 W/m² | - |
| 1777187658 | 0° C | 68% | 1009.9 hPa | 0 mm | - | 0 W/m² | - |
| 1777187354 | 0.56° C | 66% | 1009.7 hPa | 0 mm | - | 0 W/m² | - |
| 1777187049 | 0.56° C | 66% | 1010 hPa | 0 mm | - | 0 W/m² | - |
* Rain latest hour (hover to see other rain measurements)
** Current wind speed in m/s (hover to see current wind gust speed)